Pagrindinis puslapis
METAR-TAF:

METAR-TAF

Oro uostai :

Al-Hasa, Saudo Arabija

platuma: 25-18N, ilguma: 049-29E, Aukštis: 179 m

Dabartinis oras

Ataskaita buvo paskelbta 51 minutes, ne 17:00 UTC
Vėjas 12 kt iš Šiaurės su gūsio iki 22 kt
Temperatūra 20°C
Drėgmė 32%
Slėgis 1015 hPa
Matomumas: 9000 m
Išsisklaidę debesys ne aukštis 4500 ft
Išsisklaidę debesys ne aukštis 10000 ft

METAR: OEAH 221700Z 35012G22KT 9000 SCT045 SCT100 20/03 Q1015 NOSIG

Laikas: 20:51 (17:51 UTC)

Prognozė

Ataskaita buvo paskelbta 6 valandos ir 51 minutes, ne 11:00 UTC
Prognozė galioja nuo 22 metu 12 UTC su 23 metu 18 UTC
Vėjas 14 kt iš Pietų
Matomumas: 6000 m
Mažai debesys ne aukštis 4000 ft
Laikinai
nuo 22 metu 12 UTC su 22 metu 18 UTC
Matomumas: 4000 m
dulkės, Dulkes pustymas
Tapsmas
nuo 22 metu 22 UTC su 23 metu 00 UTC
Vėjas 3 kt nuo kintamojo kryptimis
Laikinai
nuo 23 metu 00 UTC su 23 metu 06 UTC
Matomumas: 3500 m
rūkana

TAF: OEAH 221100Z 2212/2318 18014KT 6000 FEW040 TEMPO 2212/2218 4000 DU BLDU BECMG 2222/2300 VRB03KT TEMPO 2300/2306 3500 BR

Orai ataskaitas ir orų prognozės (METAR, TAF).

turimą stotys yra geltonos ir raudonos taškus žemėlapyje.

Perkelti pele per norėdami pamatyti stoties vardą.

Tada spustelėkite, norėdami matyti oro stebėjimo ir prognozės.

Norėdami pakeisti žemėlapį: spustelėkite ant žalios mygtukų su juodo kryžiaus žemyn,; žalią mygtuką su brūkšneliu, jei norite nutolinti; arba žalių rodyklių gretimoms žemėlapius.


METAR-TAF: